LFRKLFRQ

Guest
Details From LFRK - Caen Carpiquet
To LFRQ - Quimper Pluguffan
Flight Number -
Tags generated
Created
Modified
Stats Distance 165 nm / 305 km
Max Altitude 16,400 ft / 4,999 m
Waypoints 3
Social Downloads 2
Likes 0
Share VATSIM

Download

Looking for another format? Having issues loading an existing format? Contact us
Advertisement - Login to hide

Notes

Basic altitude profile: - Ascent Rate: 2500ft/min - Ascent Speed: 250kts - Cruise Altitude: 35000ft - Cruise Speed: 420kts - Descent Rate: 1500ft/min - Descent Speed: 250kts Options: - Use NATs: yes - Use PACOTS: yes - Use low airways: yes - Use high airways: yes

Route

LFRK LAMBA LFRQ

ID Type Via Altitude Latitude Longitude Leg Dist Tot Dist Heading (true) Name
O LFRK APT - 0 ft / 0 m 49.17512˚ -0.45194˚ - 0 nm - Caen Carpiquet
LAMBA FIX - 16,400 ft / 4,999 m 48.52722˚ -2.43972˚ 87 nm 87 nm 244° / 243° -
O LFRQ APT - 0 ft / 0 m 47.97278˚ -4.17156˚ 76 nm 164 nm 245° / 244° Quimper Pluguffan

Altitude Profile

Advertisement - Login to hide

Weather


0- 5 10 15 20 25 30 35+ Temperature / ° C

Clouds and Precipitation
Forecast for 2017-12-11 00:00 UTC. Updated an hour ago

Ground ~20,000 ft ~40,000 ft Winds

LFRK

Details ICAO LFRK (CFR)
Name Caen Carpiquet
Region France
Timezone Europe/Paris (UTC+1.0)
Stats Elevation 256 ft / 78 m (AMSL)
Location 49.175122° -0.451941°
Runways 2
Magnetic Variation 0.323° W

METAR

LFRK 110030Z AUTO 09005KT CAVOK 05/04 Q0978

Decode

TAF

Not found

Departure Runways

ID Width Length Bearing (true) Bearing (mag) Surface Threshold Offset Overrun Length
06 98 ft / 30 m 3,880 ft / 1,183 m 51.68° 52.00° Asphalt 0 ft / 0 m 0 ft / 0 m
13 148 ft / 45 m 6,215 ft / 1,894 m 125.34° 125.66° Asphalt 984 ft / 300 m 0 ft / 0 m
24 98 ft / 30 m 3,880 ft / 1,183 m 231.69° 232.01° Asphalt 0 ft / 0 m 0 ft / 0 m
31 148 ft / 45 m 6,215 ft / 1,894 m 305.36° 305.68° Asphalt 0 ft / 0 m 0 ft / 0 m

LFRQ

Details ICAO LFRQ (UIP)
Name Quimper Pluguffan
Region France
Timezone Europe/Paris (UTC+1.0)
Stats Elevation 297 ft / 91 m (AMSL)
Location 47.972777° -4.171559°
Runways 2
Magnetic Variation 1.437° W

METAR

LFRQ 110030Z AUTO 02017KT 5000 RA BR FEW007/// SCT012/// BKN017/// ///CB 06/05 Q0968

Decode

TAF

Not found

Destination Runways

ID Width Length Bearing (true) Bearing (mag) Surface Threshold Offset Overrun Length
04 148 ft / 45 m 3,632 ft / 1,107 m 32.51° 33.95° Asphalt 1,148 ft / 350 m 0 ft / 0 m
10 148 ft / 45 m 7,035 ft / 2,144 m 93.49° 94.93° Asphalt 344 ft / 105 m 197 ft / 60 m
22 148 ft / 45 m 3,632 ft / 1,107 m 212.52° 213.96° Asphalt 0 ft / 0 m 0 ft / 0 m
28 148 ft / 45 m 7,035 ft / 2,144 m 273.51° 274.95° Asphalt 0 ft / 0 m 0 ft / 0 m

Approach Navaids

Runway Type Ident Frequency Range Bearing (true) Bearing (mag) Slope Elevation
28 Localiser QR 110.30 MHz 18 nm / 33 km 273.51° 274.95° - 295 ft / 90 m (AMSL)
28 Glidescope QR 110.30 MHz 10 nm / 19 km 273.50° 274.94° 3.00° 295 ft / 90 m (AMSL)
28 DME QR 110.30 MHz 18 nm / 33 km - - - 332 ft / 101 m (AMSL)